createdAt,value
2022-10-30T05:03:35.833Z,5.88
2022-10-30T05:07:43.710Z,5.57
2022-10-30T05:11:46.332Z,6.40
2022-10-30T05:15:49.508Z,5.63
2022-10-30T05:19:54.391Z,5.20
2022-10-30T05:23:56.999Z,5.43
2022-10-30T05:28:01.792Z,4.72
2022-10-30T05:32:06.198Z,4.72
2022-10-30T05:36:29.797Z,5.00
2022-10-30T05:40:33.429Z,5.15
2022-10-30T05:44:59.207Z,5.15
2022-10-30T05:49:00.537Z,4.97
2022-10-30T05:53:06.661Z,5.05
2022-10-30T05:57:09.296Z,5.35
2022-10-30T06:01:14.472Z,4.82
2022-10-30T06:05:20.878Z,4.60
2022-10-30T06:09:24.846Z,5.03
2022-10-30T06:13:53.784Z,5.03
2022-10-30T06:18:03.429Z,4.88
2022-10-30T06:22:16.627Z,5.05
2022-10-30T06:26:26.834Z,4.38
2022-10-30T06:30:33.241Z,4.80
2022-10-30T06:34:36.314Z,4.70
2022-10-30T06:38:39.025Z,5.20
2022-10-30T06:42:47.285Z,4.93
2022-10-30T06:47:07.808Z,4.68
2022-10-30T06:51:10.506Z,4.83
2022-10-30T06:55:15.455Z,5.03
2022-10-30T06:59:39.331Z,5.05
2022-10-30T07:04:02.511Z,10.18
2022-10-30T07:08:05.839Z,5.65
2022-10-30T07:12:09.482Z,6.05
2022-10-30T07:16:31.985Z,6.55
2022-10-30T07:20:35.872Z,6.25
2022-10-30T07:24:38.562Z,6.43
2022-10-30T07:28:50.070Z,5.72
2022-10-30T07:33:02.619Z,6.10
2022-10-30T07:37:24.230Z,5.65
2022-10-30T07:41:49.785Z,6.20
2022-10-30T07:46:11.072Z,5.57
2022-10-30T07:50:34.055Z,5.35
2022-10-30T07:54:38.020Z,5.28
2022-10-30T07:58:56.753Z,5.50
2022-10-30T08:03:21.930Z,5.30
2022-10-30T08:07:33.007Z,5.00
2022-10-30T08:11:35.726Z,5.78
2022-10-30T08:15:39.944Z,5.22
2022-10-30T08:19:44.675Z,5.03
2022-10-30T08:23:48.826Z,5.35
2022-10-30T08:27:58.313Z,6.10
2022-10-30T08:32:03.044Z,5.50
2022-10-30T08:36:26.050Z,5.60
2022-10-30T08:40:30.393Z,5.40
2022-10-30T08:44:39.047Z,5.95
2022-10-30T08:49:11.345Z,4.95
2022-10-30T08:53:20.440Z,5.25
2022-10-30T08:57:25.997Z,4.90
2022-10-30T09:01:30.442Z,5.00
2022-10-30T09:05:48.736Z,4.95
2022-10-30T09:10:10.662Z,5.05
2022-10-30T09:14:15.244Z,4.93
2022-10-30T09:18:18.153Z,5.50
2022-10-30T09:22:21.335Z,4.82
2022-10-30T09:26:25.104Z,4.63
2022-10-30T09:30:34.924Z,4.55
2022-10-30T09:34:39.522Z,5.78
2022-10-30T09:38:48.638Z,4.80
2022-10-30T09:42:52.957Z,5.00
2022-10-30T09:47:22.377Z,5.00
2022-10-30T09:51:53.575Z,5.13
2022-10-30T09:56:05.905Z,4.60
2022-10-30T10:00:12.534Z,5.32
2022-10-30T10:04:27.152Z,5.20
2022-10-30T10:08:53.110Z,5.28
2022-10-30T10:13:27.306Z,5.32
2022-10-30T10:17:35.863Z,5.20
2022-10-30T10:21:45.845Z,4.60
2022-10-30T10:25:54.280Z,4.88
2022-10-30T10:30:04.461Z,4.68
2022-10-30T10:34:25.649Z,5.03
2022-10-30T10:38:40.533Z,4.95
2022-10-30T10:42:56.322Z,4.30
2022-10-30T10:47:09.378Z,4.47
2022-10-30T10:51:16.109Z,4.30
2022-10-30T10:55:23.514Z,4.40
2022-10-30T10:59:35.495Z,4.97
2022-10-30T11:03:47.014Z,4.68
2022-10-30T11:07:51.942Z,4.45
2022-10-30T11:11:56.454Z,4.72
2022-10-30T11:16:10.456Z,4.80
2022-10-30T11:20:19.515Z,4.60
2022-10-30T11:24:31.009Z,4.20
2022-10-30T11:28:47.308Z,4.32
2022-10-30T11:32:50.638Z,4.15
2022-10-30T11:36:54.942Z,4.03
2022-10-30T11:40:57.609Z,3.90
2022-10-30T11:45:01.973Z,3.95
2022-10-30T11:49:04.736Z,4.07
2022-10-30T11:53:14.118Z,3.72
2022-10-30T11:57:23.105Z,4.10
2022-10-30T12:01:30.123Z,4.43
2022-10-30T12:05:39.563Z,3.92
2022-10-30T12:09:46.278Z,3.92
2022-10-30T12:13:49.040Z,3.85
2022-10-30T12:17:54.328Z,3.75
2022-10-30T12:21:57.980Z,3.90
2022-10-30T12:26:02.634Z,3.97
2022-10-30T12:30:10.289Z,3.53
2022-10-30T12:34:28.083Z,4.10
2022-10-30T12:38:37.371Z,3.90
2022-10-30T12:42:46.373Z,3.45
2022-10-30T12:46:55.745Z,3.63
2022-10-30T12:51:19.725Z,3.63
2022-10-30T12:55:29.898Z,3.90
2022-10-30T12:59:40.825Z,3.63
2022-10-30T13:03:51.576Z,3.90
2022-10-30T13:08:05.607Z,3.70
2022-10-30T13:12:11.557Z,3.50
2022-10-30T13:16:17.602Z,3.80
2022-10-30T13:20:21.727Z,3.40
2022-10-30T13:24:39.669Z,3.38
2022-10-30T13:28:48.845Z,3.97
2022-10-30T13:33:04.409Z,3.65
2022-10-30T13:37:14.001Z,3.50
2022-10-30T13:41:26.705Z,3.42
2022-10-30T13:46:03.294Z,4.22
2022-10-30T13:50:21.004Z,3.95
2022-10-30T13:54:28.324Z,3.55
2022-10-30T13:58:47.151Z,3.97
2022-10-30T14:03:07.026Z,4.30
2022-10-30T14:07:25.048Z,3.53
2022-10-30T14:11:27.734Z,4.35
2022-10-30T14:15:35.408Z,3.60
2022-10-30T14:20:14.387Z,3.50
2022-10-30T14:24:21.003Z,3.85
2022-10-30T14:28:23.837Z,4.03
2022-10-30T14:36:51.085Z,3.35
2022-10-30T14:41:14.909Z,3.70
2022-10-30T14:45:25.241Z,3.78
2022-10-30T14:49:50.901Z,4.00
2022-10-30T14:54:03.431Z,4.13
2022-10-30T14:58:19.363Z,3.70
2022-10-30T15:02:33.768Z,5.20
2022-10-30T15:06:49.937Z,5.15
2022-10-30T15:11:04.774Z,6.10
2022-10-30T15:15:13.826Z,6.75
2022-10-30T15:19:16.745Z,4.82
2022-10-30T15:23:25.472Z,4.60
2022-10-30T15:27:29.652Z,4.90
2022-10-30T15:31:33.415Z,4.63
2022-10-30T15:35:36.067Z,5.45
2022-10-30T15:39:40.392Z,4.07
2022-10-30T15:43:44.190Z,4.75
2022-10-30T15:47:49.964Z,5.38
2022-10-30T15:51:53.159Z,4.22
2022-10-30T16:00:06.426Z,5.70
2022-10-30T16:04:18.338Z,5.32
2022-10-30T16:08:23.954Z,5.18
2022-10-30T16:12:29.551Z,11.98
2022-10-30T16:16:33.578Z,12.80
2022-10-30T16:20:37.996Z,10.80
2022-10-30T16:24:41.471Z,11.23
2022-10-30T16:28:48.476Z,7.78
2022-10-30T16:32:54.586Z,8.30
2022-10-30T16:36:57.642Z,8.02
2022-10-30T16:41:02.840Z,7.93
2022-10-30T16:45:47.914Z,6.20
2022-10-30T16:49:54.613Z,6.05
2022-10-30T16:53:57.407Z,5.88
2022-10-30T16:58:03.562Z,8.93
2022-10-30T17:02:18.451Z,8.98
2022-10-30T17:06:31.738Z,7.68
2022-10-30T17:10:36.805Z,7.28
2022-10-30T17:14:45.698Z,8.10
2022-10-30T17:18:52.168Z,5.80
2022-10-30T17:23:07.352Z,5.10
2022-10-30T17:27:30.419Z,5.57
2022-10-30T17:31:43.889Z,6.75
2022-10-30T17:43:54.272Z,6.97
2022-10-30T17:47:57.459Z,6.90
2022-10-30T17:56:12.117Z,6.93
2022-10-30T18:00:15.582Z,6.72
2022-10-30T18:04:21.446Z,9.52
2022-10-30T18:08:25.812Z,8.20
2022-10-30T18:12:28.461Z,10.88
2022-10-30T18:16:31.795Z,9.27
2022-10-30T18:24:38.361Z,8.73
2022-10-30T18:28:41.166Z,7.95
2022-10-30T18:32:44.423Z,12.13
2022-10-30T18:36:47.054Z,8.10
2022-10-30T18:40:51.721Z,8.43
2022-10-30T18:44:54.334Z,9.25
2022-10-30T18:48:57.042Z,10.30
2022-10-30T18:53:00.939Z,8.52
2022-10-30T18:57:05.398Z,10.02
2022-10-30T19:01:12.622Z,11.60
2022-10-30T19:05:31.183Z,10.55
2022-10-30T19:09:34.011Z,9.25
2022-10-30T19:13:38.107Z,7.40
2022-10-30T19:17:40.726Z,9.23
2022-10-30T19:21:43.353Z,8.20
2022-10-30T19:25:47.591Z,9.30
2022-10-30T19:29:51.547Z,9.43
2022-10-30T19:33:57.402Z,10.98
2022-10-30T19:38:00.583Z,13.07
2022-10-30T19:42:03.514Z,12.68
2022-10-30T19:46:07.564Z,9.73
2022-10-30T19:50:23.310Z,10.48
2022-10-30T19:54:26.023Z,8.68
2022-10-30T19:58:28.658Z,12.00
2022-10-30T20:02:32.717Z,8.97
2022-10-30T20:06:36.595Z,9.38
2022-10-30T20:10:41.992Z,10.93
2022-10-30T20:14:44.625Z,11.45
2022-10-30T20:18:49.410Z,7.20
2022-10-30T20:22:52.588Z,8.38
2022-10-30T20:26:57.165Z,9.25
2022-10-30T20:31:00.172Z,8.32
2022-10-30T20:35:08.769Z,11.25
2022-10-30T20:39:13.986Z,10.82
2022-10-30T20:43:18.665Z,9.80
2022-10-30T20:47:21.290Z,10.73
2022-10-30T20:51:25.284Z,8.40
2022-10-30T20:55:28.437Z,8.80
2022-10-30T20:59:31.129Z,7.43
2022-10-30T21:03:33.911Z,7.57
2022-10-30T21:07:37.966Z,8.80
2022-10-30T21:11:40.643Z,10.70
2022-10-30T21:15:44.807Z,12.00
2022-10-30T21:19:47.401Z,9.50
2022-10-30T21:23:54.691Z,10.10
2022-10-30T21:27:57.683Z,7.78
2022-10-30T21:32:00.321Z,8.88
2022-10-30T21:36:12.009Z,8.00
2022-10-30T21:40:17.315Z,8.95
2022-10-30T21:44:20.002Z,9.40
2022-10-30T21:48:23.072Z,11.47
2022-10-30T21:52:25.775Z,13.18
2022-10-30T21:56:30.638Z,9.73
